createdAt,value
2023-02-19T00:00:59.155Z,88.71
2023-02-19T00:03:25.518Z,88.27
2023-02-19T00:05:51.926Z,87.80
2023-02-19T00:08:18.220Z,87.22
2023-02-19T00:10:44.607Z,87.95
2023-02-19T00:13:10.933Z,87.98
2023-02-19T00:15:37.245Z,87.93
2023-02-19T00:18:03.669Z,88.21
2023-02-19T00:20:29.960Z,88.13
2023-02-19T00:22:56.271Z,87.36
2023-02-19T00:25:22.582Z,87.60
2023-02-19T00:27:48.894Z,87.95
2023-02-19T00:30:15.241Z,88.46
2023-02-19T00:32:41.548Z,88.27
2023-02-19T00:35:07.920Z,87.29
2023-02-19T00:37:34.199Z,88.44
2023-02-19T00:40:00.534Z,87.70
2023-02-19T00:42:26.870Z,88.26
2023-02-19T00:44:53.178Z,87.75
2023-02-19T00:47:19.484Z,87.26
2023-02-19T00:49:45.793Z,87.52
2023-02-19T00:52:12.091Z,88.06
2023-02-19T00:54:38.528Z,88.11
2023-02-19T00:57:04.858Z,88.77
2023-02-19T00:59:31.195Z,88.87
2023-02-19T01:01:57.560Z,88.11
2023-02-19T01:04:23.949Z,88.05
2023-02-19T01:06:50.372Z,88.03
2023-02-19T01:09:16.750Z,87.77
2023-02-19T01:11:43.070Z,87.03
2023-02-19T01:14:09.706Z,86.71
2023-02-19T01:16:36.208Z,87.18
2023-02-19T01:19:02.728Z,87.74
2023-02-19T01:21:30.655Z,88.31
2023-02-19T01:23:58.103Z,87.63
2023-02-19T01:26:25.558Z,87.95
2023-02-19T01:28:52.189Z,87.98
2023-02-19T01:31:20.946Z,87.52
2023-02-19T01:33:50.269Z,88.28
2023-02-19T01:36:16.794Z,88.13
2023-02-19T01:38:43.538Z,88.33
2023-02-19T01:41:12.838Z,88.34
2023-02-19T01:44:14.769Z,86.79
2023-02-19T01:46:42.628Z,88.54
2023-02-19T01:49:23.723Z,88.06
2023-02-19T01:52:00.461Z,88.45
2023-02-19T01:54:30.842Z,88.68
2023-02-19T01:56:58.752Z,87.63
2023-02-19T01:59:25.778Z,87.99
2023-02-19T02:01:52.239Z,88.60
2023-02-19T02:04:18.958Z,89.06
2023-02-19T02:06:54.730Z,88.78
2023-02-19T02:09:25.209Z,89.30
2023-02-19T02:11:52.747Z,88.75
2023-02-19T02:14:23.216Z,89.19
2023-02-19T02:17:19.724Z,89.84
2023-02-19T02:20:14.650Z,89.40
2023-02-19T02:22:52.744Z,89.13
2023-02-19T02:25:54.733Z,89.82
2023-02-19T02:28:55.122Z,87.94
2023-02-19T02:31:35.547Z,89.30
2023-02-19T02:34:14.828Z,89.36
2023-02-19T02:36:45.534Z,88.89
2023-02-19T02:39:15.650Z,89.22
2023-02-19T02:41:45.000Z,89.17
2023-02-19T02:44:11.835Z,88.79
2023-02-19T02:46:44.690Z,89.44
2023-02-19T02:49:22.857Z,89.45
2023-02-19T02:51:53.869Z,88.55
2023-02-19T02:54:26.006Z,89.16
2023-02-19T02:56:54.780Z,89.10
2023-02-19T02:59:24.970Z,88.99
2023-02-19T03:01:56.946Z,89.76
2023-02-19T03:04:46.091Z,89.20
2023-02-19T03:07:12.567Z,89.05
2023-02-19T03:09:42.420Z,90.27
2023-02-19T03:12:14.624Z,89.47
2023-02-19T03:14:48.960Z,90.34
2023-02-19T03:17:21.908Z,90.69
2023-02-19T03:19:52.709Z,90.64
2023-02-19T03:22:25.710Z,90.41
2023-02-19T03:25:00.307Z,89.85
2023-02-19T03:27:30.256Z,89.89
2023-02-19T03:30:01.238Z,90.37
2023-02-19T03:32:34.208Z,90.22
2023-02-19T03:35:13.685Z,90.32
2023-02-19T03:38:06.378Z,89.19
2023-02-19T03:40:57.484Z,89.96
2023-02-19T03:43:52.283Z,90.19
2023-02-19T03:46:33.822Z,88.87
2023-02-19T03:49:09.301Z,88.58
2023-02-19T03:51:44.125Z,87.70
2023-02-19T03:54:35.454Z,88.26
2023-02-19T03:57:23.177Z,88.43
2023-02-19T04:00:13.508Z,87.00
2023-02-19T04:03:06.876Z,87.51
2023-02-19T04:05:38.381Z,87.63
2023-02-19T04:08:11.661Z,87.60
2023-02-19T04:10:39.594Z,88.80
2023-02-19T04:13:14.963Z,88.81
2023-02-19T04:15:44.204Z,89.30
2023-02-19T04:18:25.512Z,88.83
2023-02-19T04:20:52.693Z,89.33
2023-02-19T04:23:22.451Z,88.94
2023-02-19T04:25:53.153Z,89.47
2023-02-19T04:28:19.434Z,89.64
2023-02-19T04:30:46.170Z,89.41
2023-02-19T04:33:12.578Z,89.28
2023-02-19T04:35:38.906Z,89.62
2023-02-19T04:38:05.233Z,90.00
2023-02-19T04:40:31.609Z,89.58
2023-02-19T04:42:57.925Z,89.58
2023-02-19T04:45:24.280Z,88.72
2023-02-19T04:47:50.707Z,89.06
2023-02-19T04:50:17.311Z,89.67
2023-02-19T04:52:43.644Z,89.98
2023-02-19T04:55:10.633Z,90.00
2023-02-19T04:57:36.922Z,90.04
2023-02-19T05:00:03.821Z,90.12
2023-02-19T05:02:30.154Z,89.65
2023-02-19T05:04:56.448Z,90.22
2023-02-19T05:07:22.746Z,90.66
2023-02-19T05:09:49.083Z,90.13
2023-02-19T05:12:15.373Z,90.41
2023-02-19T05:14:41.669Z,89.80
2023-02-19T05:17:07.976Z,90.39
2023-02-19T05:19:34.312Z,90.41
2023-02-19T05:22:00.625Z,91.44
2023-02-19T05:24:26.940Z,90.75
2023-02-19T05:26:53.247Z,90.81
2023-02-19T05:29:19.691Z,90.98
2023-02-19T05:31:46.027Z,90.62
2023-02-19T05:34:12.406Z,89.90
2023-02-19T05:36:39.334Z,90.50
2023-02-19T05:39:05.653Z,90.37
2023-02-19T05:41:32.006Z,90.64
2023-02-19T05:43:58.626Z,89.96
2023-02-19T05:46:27.685Z,90.20
2023-02-19T05:48:54.103Z,90.30
2023-02-19T05:51:22.920Z,90.07
2023-02-19T05:53:49.503Z,90.24
2023-02-19T05:56:34.205Z,90.44
2023-02-19T05:59:03.338Z,90.02
2023-02-19T06:01:30.443Z,90.15
2023-02-19T06:03:57.823Z,89.45
2023-02-19T06:06:25.202Z,89.40
2023-02-19T06:08:51.964Z,89.21
2023-02-19T06:11:18.795Z,90.58
2023-02-19T06:13:45.210Z,90.47
2023-02-19T06:16:11.665Z,89.95
2023-02-19T06:18:38.138Z,89.08
2023-02-19T06:21:06.431Z,88.75
2023-02-19T06:23:32.802Z,89.14
2023-02-19T06:26:16.641Z,89.93
2023-02-19T06:28:43.724Z,90.35
2023-02-19T06:31:11.545Z,91.16
2023-02-19T06:33:38.912Z,91.01
2023-02-19T06:36:07.603Z,90.75
2023-02-19T06:38:33.981Z,90.90
2023-02-19T06:41:01.673Z,91.37
2023-02-19T06:43:28.372Z,90.54
2023-02-19T06:45:54.885Z,90.81
2023-02-19T06:48:21.165Z,90.56
2023-02-19T06:50:47.469Z,90.80
2023-02-19T06:53:13.760Z,91.27
2023-02-19T06:55:40.080Z,90.36
2023-02-19T06:58:07.266Z,90.15
2023-02-19T07:00:34.700Z,90.78
2023-02-19T07:03:01.064Z,90.82
2023-02-19T07:05:27.416Z,91.17
2023-02-19T07:07:53.725Z,90.86
2023-02-19T07:10:20.036Z,91.59
2023-02-19T07:12:46.344Z,91.21
2023-02-19T07:15:12.648Z,90.86
2023-02-19T07:17:38.972Z,90.98
2023-02-19T07:20:05.708Z,90.73
2023-02-19T07:22:32.050Z,89.96
2023-02-19T07:24:58.362Z,89.50
2023-02-19T07:27:24.630Z,87.47
2023-02-19T07:29:50.924Z,88.54
2023-02-19T07:32:17.220Z,89.36
2023-02-19T07:34:43.522Z,88.25
2023-02-19T07:37:09.810Z,87.57
2023-02-19T07:39:36.137Z,87.72
2023-02-19T07:42:02.508Z,88.67
2023-02-19T07:44:28.808Z,87.84
2023-02-19T07:46:55.141Z,88.15
2023-02-19T07:49:21.430Z,87.08
2023-02-19T07:51:47.755Z,86.95
2023-02-19T07:54:14.061Z,86.28
2023-02-19T07:56:40.394Z,87.53
2023-02-19T07:59:06.692Z,86.74
2023-02-19T08:01:33.182Z,86.52
2023-02-19T08:03:59.551Z,86.21
2023-02-19T08:06:25.918Z,85.62
2023-02-19T08:08:52.223Z,85.97
2023-02-19T08:11:18.505Z,85.83
2023-02-19T08:13:44.930Z,87.24
2023-02-19T08:16:21.860Z,86.41
2023-02-19T08:18:53.154Z,86.98
2023-02-19T08:21:19.493Z,86.54
2023-02-19T08:23:45.793Z,86.55
2023-02-19T08:26:12.251Z,86.23
2023-02-19T08:28:38.573Z,85.67
2023-02-19T08:31:06.707Z,86.25
2023-02-19T08:33:33.141Z,86.10
2023-02-19T08:36:07.032Z,86.29
2023-02-19T08:38:34.638Z,85.58
2023-02-19T08:41:04.378Z,85.65
2023-02-19T08:43:30.676Z,85.76
2023-02-19T08:45:57.017Z,85.57
2023-02-19T08:48:23.319Z,84.92
2023-02-19T08:51:04.671Z,83.75
2023-02-19T08:53:32.503Z,85.07
2023-02-19T08:55:58.973Z,84.60
2023-02-19T08:58:25.268Z,83.08
2023-02-19T09:00:52.509Z,83.17
2023-02-19T09:03:18.797Z,83.67
2023-02-19T09:05:45.142Z,84.00
2023-02-19T09:08:11.433Z,84.02
2023-02-19T09:10:37.745Z,82.59
2023-02-19T09:13:04.454Z,82.01
2023-02-19T09:15:30.944Z,82.79
2023-02-19T09:17:57.266Z,83.17
2023-02-19T09:20:23.620Z,82.39
2023-02-19T09:22:49.941Z,82.10
2023-02-19T09:25:16.322Z,82.80
2023-02-19T09:27:42.721Z,81.25
2023-02-19T09:30:09.377Z,81.23
2023-02-19T09:32:35.677Z,82.07
2023-02-19T09:35:02.009Z,83.25
2023-02-19T09:37:28.550Z,82.02
2023-02-19T09:39:55.398Z,80.74
2023-02-19T09:42:28.186Z,81.26
2023-02-19T09:44:57.326Z,82.25
2023-02-19T09:47:27.222Z,80.96
2023-02-19T09:50:02.515Z,80.27
2023-02-19T09:52:35.622Z,81.66
2023-02-19T09:55:09.748Z,79.88
2023-02-19T09:57:36.454Z,79.20
2023-02-19T10:00:11.757Z,78.70
2023-02-19T10:02:38.980Z,78.04
2023-02-19T10:05:14.362Z,77.84
2023-02-19T10:07:47.585Z,76.60
2023-02-19T10:10:13.833Z,77.50
2023-02-19T10:12:53.766Z,77.37
2023-02-19T10:15:31.482Z,77.66
2023-02-19T10:17:58.039Z,73.71
2023-02-19T10:20:25.724Z,76.23
2023-02-19T10:23:02.173Z,73.98
2023-02-19T10:25:30.028Z,74.71
2023-02-19T10:28:01.936Z,74.32
2023-02-19T10:30:31.689Z,74.21
2023-02-19T10:33:10.426Z,74.18
2023-02-19T10:35:51.012Z,73.00
2023-02-19T10:38:20.196Z,72.05
2023-02-19T10:40:47.070Z,74.16
2023-02-19T10:43:25.423Z,72.65
2023-02-19T10:45:52.081Z,70.18
2023-02-19T10:48:24.918Z,71.58
2023-02-19T10:50:53.715Z,70.62
2023-02-19T10:53:23.581Z,71.62
2023-02-19T10:56:07.288Z,71.95
2023-02-19T10:58:33.628Z,71.38
2023-02-19T11:01:19.158Z,70.25
2023-02-19T11:03:46.897Z,69.64
2023-02-19T11:06:15.323Z,69.30
2023-02-19T11:08:52.138Z,68.74
2023-02-19T11:11:24.498Z,68.32
2023-02-19T11:13:51.180Z,69.90
2023-02-19T11:16:17.889Z,71.11
2023-02-19T11:18:44.384Z,69.00
2023-02-19T11:21:30.998Z,69.38
2023-02-19T11:23:57.306Z,70.02
2023-02-19T11:26:26.689Z,68.28
2023-02-19T11:28:58.840Z,65.46
2023-02-19T11:31:32.894Z,66.41
2023-02-19T11:34:15.499Z,64.75
2023-02-19T11:36:42.619Z,64.29
2023-02-19T11:39:14.918Z,63.04
2023-02-19T11:42:28.285Z,63.54
2023-02-19T11:45:26.775Z,64.95
2023-02-19T11:48:08.722Z,64.13
2023-02-19T11:50:34.966Z,64.59
2023-02-19T11:53:21.234Z,65.24
2023-02-19T11:56:07.554Z,63.85
2023-02-19T11:58:46.035Z,64.47
2023-02-19T12:01:27.748Z,63.75
2023-02-19T12:04:14.263Z,63.50
2023-02-19T12:07:11.852Z,62.62
2023-02-19T12:09:47.364Z,63.27
2023-02-19T12:12:19.814Z,61.77
2023-02-19T12:15:00.410Z,61.15
2023-02-19T12:17:52.592Z,63.59
2023-02-19T12:20:34.185Z,61.78
2023-02-19T12:23:18.999Z,63.59
2023-02-19T12:26:14.117Z,63.24
2023-02-19T12:29:02.421Z,62.86
2023-02-19T12:31:47.457Z,63.35
2023-02-19T12:34:35.229Z,60.22
2023-02-19T12:37:08.657Z,61.46
2023-02-19T12:39:52.297Z,61.71
2023-02-19T12:42:27.928Z,60.02
2023-02-19T12:45:01.045Z,58.74
2023-02-19T12:47:40.665Z,58.16
2023-02-19T12:50:21.621Z,59.39
2023-02-19T12:52:55.213Z,58.71
2023-02-19T12:55:30.563Z,59.16
2023-02-19T12:58:01.610Z,57.42
2023-02-19T13:00:54.362Z,57.07
2023-02-19T13:03:32.678Z,57.55
2023-02-19T13:06:26.622Z,56.67
2023-02-19T13:09:06.506Z,55.04
2023-02-19T13:11:45.973Z,56.67
2023-02-19T13:14:21.208Z,54.34
2023-02-19T13:16:52.790Z,54.29
2023-02-19T13:19:21.238Z,54.50
2023-02-19T13:21:59.251Z,54.44
2023-02-19T13:24:32.513Z,55.27
2023-02-19T13:27:05.456Z,53.40
2023-02-19T13:29:58.805Z,53.73
2023-02-19T13:32:41.123Z,54.37
2023-02-19T13:35:59.509Z,53.64
2023-02-19T13:38:29.763Z,54.22
2023-02-19T13:41:07.634Z,54.76
2023-02-19T13:43:40.969Z,55.39
2023-02-19T13:46:15.896Z,53.36
2023-02-19T13:48:43.739Z,53.48
2023-02-19T13:51:13.287Z,52.61
2023-02-19T13:53:42.918Z,53.29
2023-02-19T13:56:31.484Z,53.97
2023-02-19T13:59:19.609Z,54.34
2023-02-19T14:01:54.932Z,55.42
2023-02-19T14:04:25.575Z,56.77
2023-02-19T14:07:22.341Z,55.33
2023-02-19T14:09:49.301Z,55.84
2023-02-19T14:12:16.345Z,54.93
2023-02-19T14:14:46.827Z,54.76
2023-02-19T14:17:27.141Z,53.83
2023-02-19T14:19:53.378Z,53.75
2023-02-19T14:22:44.623Z,53.96
2023-02-19T14:25:36.536Z,53.52
2023-02-19T14:28:24.654Z,52.04
2023-02-19T14:30:52.641Z,53.01
2023-02-19T14:33:49.656Z,52.16
2023-02-19T14:36:27.203Z,53.45
2023-02-19T14:38:57.891Z,53.00
2023-02-19T14:41:25.067Z,54.65
2023-02-19T14:43:55.254Z,54.17
2023-02-19T14:46:37.137Z,54.50
2023-02-19T14:49:23.671Z,54.98
2023-02-19T14:52:17.296Z,55.45
2023-02-19T14:54:51.021Z,55.56
2023-02-19T14:57:26.194Z,54.58
2023-02-19T14:59:58.751Z,54.20
2023-02-19T15:02:27.110Z,53.66
2023-02-19T15:04:54.344Z,53.15
2023-02-19T15:07:25.515Z,55.98
2023-02-19T15:09:54.690Z,53.72
2023-02-19T15:12:28.619Z,54.04
2023-02-19T15:14:59.819Z,53.77
2023-02-19T15:17:29.491Z,54.68
2023-02-19T15:19:59.190Z,54.62
2023-02-19T15:22:27.884Z,53.27
2023-02-19T15:24:55.266Z,54.99
2023-02-19T15:27:22.979Z,54.59
2023-02-19T15:29:53.577Z,54.45
2023-02-19T15:32:23.294Z,55.24
2023-02-19T15:34:58.378Z,55.93
2023-02-19T15:37:27.790Z,55.28
2023-02-19T15:39:56.400Z,56.31
2023-02-19T15:42:30.310Z,54.90
2023-02-19T15:44:56.528Z,52.17
2023-02-19T15:47:43.470Z,52.48
2023-02-19T15:50:17.382Z,52.14
2023-02-19T15:52:50.088Z,51.78
2023-02-19T15:55:29.225Z,52.04
2023-02-19T15:58:08.189Z,52.67
2023-02-19T16:00:57.565Z,52.03
2023-02-19T16:03:26.366Z,52.33
2023-02-19T16:06:04.595Z,53.14
2023-02-19T16:08:36.561Z,53.11
2023-02-19T16:11:06.023Z,54.24
2023-02-19T16:13:34.428Z,54.52
2023-02-19T16:16:19.176Z,54.87
2023-02-19T16:18:48.020Z,57.02
2023-02-19T16:21:17.390Z,56.34
2023-02-19T16:23:46.973Z,57.03
2023-02-19T16:26:13.758Z,56.70
2023-02-19T16:28:41.856Z,57.31
2023-02-19T16:31:11.723Z,56.27
2023-02-19T16:33:43.764Z,56.52
2023-02-19T16:36:25.031Z,56.69
2023-02-19T16:39:06.538Z,56.10
2023-02-19T16:41:44.929Z,56.43
2023-02-19T16:44:20.270Z,57.08
2023-02-19T16:46:51.187Z,56.98
2023-02-19T16:49:18.169Z,55.82
2023-02-19T16:51:45.946Z,57.65
2023-02-19T16:54:13.102Z,59.05
2023-02-19T16:56:39.916Z,57.98
2023-02-19T16:59:06.392Z,57.84
2023-02-19T17:01:33.269Z,58.22
2023-02-19T17:04:03.605Z,58.58
2023-02-19T17:06:30.310Z,59.16
2023-02-19T17:08:56.609Z,59.69
2023-02-19T17:11:23.581Z,58.98
2023-02-19T17:13:49.891Z,59.28
2023-02-19T17:16:25.443Z,60.14
2023-02-19T17:18:51.780Z,61.13
2023-02-19T17:21:27.719Z,60.28
2023-02-19T17:23:54.822Z,62.21
2023-02-19T17:26:27.288Z,61.27
2023-02-19T17:28:56.282Z,62.27
2023-02-19T17:31:22.710Z,62.14
2023-02-19T17:33:49.037Z,61.96
2023-02-19T17:36:21.600Z,62.78
2023-02-19T17:38:48.021Z,64.03
2023-02-19T17:41:14.334Z,63.26
2023-02-19T17:43:40.866Z,65.22
2023-02-19T17:46:07.201Z,63.64
2023-02-19T17:48:33.529Z,64.55
2023-02-19T17:50:59.843Z,64.15
2023-02-19T17:53:26.128Z,64.54
2023-02-19T17:55:52.459Z,64.44
2023-02-19T17:58:18.744Z,66.24
2023-02-19T18:00:45.040Z,64.85
2023-02-19T18:03:11.364Z,65.94
2023-02-19T18:05:37.654Z,66.64
2023-02-19T18:08:03.971Z,68.22
2023-02-19T18:10:30.289Z,66.63
2023-02-19T18:12:56.816Z,66.99
2023-02-19T18:15:25.607Z,67.53
2023-02-19T18:17:52.687Z,66.92
2023-02-19T18:20:25.444Z,68.45
2023-02-19T18:22:52.336Z,67.99
2023-02-19T18:25:19.977Z,67.95
2023-02-19T18:27:46.911Z,68.40
2023-02-19T18:30:14.683Z,68.43
2023-02-19T18:32:40.986Z,68.76
2023-02-19T18:35:07.815Z,68.67
2023-02-19T18:37:34.270Z,68.80
2023-02-19T18:40:01.659Z,68.37
2023-02-19T18:42:28.442Z,68.65
2023-02-19T18:44:57.900Z,70.61
2023-02-19T18:47:28.450Z,70.35
2023-02-19T18:49:57.632Z,69.76
2023-02-19T18:52:26.058Z,70.16
2023-02-19T18:54:55.853Z,70.20
2023-02-19T18:57:26.648Z,70.48
2023-02-19T18:59:53.589Z,70.98
2023-02-19T19:02:19.997Z,71.32
2023-02-19T19:04:51.346Z,71.65
2023-02-19T19:07:18.296Z,72.20
2023-02-19T19:09:44.699Z,72.15
2023-02-19T19:12:14.072Z,72.31
2023-02-19T19:14:40.562Z,72.22
2023-02-19T19:17:06.968Z,72.43
2023-02-19T19:19:33.269Z,72.57
2023-02-19T19:21:59.576Z,72.43
2023-02-19T19:24:25.864Z,72.11
2023-02-19T19:26:52.529Z,73.04
2023-02-19T19:29:23.781Z,72.85
2023-02-19T19:31:50.231Z,73.12
2023-02-19T19:34:19.091Z,73.59
2023-02-19T19:36:46.884Z,73.76
2023-02-19T19:39:13.368Z,74.42
2023-02-19T19:41:39.787Z,74.67
2023-02-19T19:44:08.080Z,75.38
2023-02-19T19:46:34.609Z,76.08
2023-02-19T19:49:01.157Z,75.63
2023-02-19T19:51:34.161Z,75.70
2023-02-19T19:54:00.452Z,76.20
2023-02-19T19:56:26.777Z,76.05
2023-02-19T19:58:53.275Z,75.72
2023-02-19T20:01:19.709Z,76.08
2023-02-19T20:03:49.310Z,77.53
2023-02-19T20:06:24.419Z,78.13
2023-02-19T20:08:50.699Z,77.36
2023-02-19T20:11:17.018Z,78.08
2023-02-19T20:13:43.630Z,77.79
2023-02-19T20:16:10.013Z,77.09
2023-02-19T20:18:36.360Z,76.97
2023-02-19T20:21:02.699Z,77.21
2023-02-19T20:23:29.602Z,77.19
2023-02-19T20:25:59.648Z,76.91
2023-02-19T20:28:26.076Z,77.79
2023-02-19T20:30:52.428Z,77.80
2023-02-19T20:33:20.236Z,78.27
2023-02-19T20:35:46.503Z,78.51
2023-02-19T20:38:16.237Z,78.40
2023-02-19T20:40:43.108Z,78.52
2023-02-19T20:43:12.320Z,78.14
2023-02-19T20:45:40.915Z,78.67
2023-02-19T20:48:07.231Z,78.94
2023-02-19T20:50:33.515Z,78.75
2023-02-19T20:52:59.808Z,78.99
2023-02-19T20:55:31.151Z,78.63
2023-02-19T20:57:57.498Z,78.63
2023-02-19T21:00:23.952Z,78.15
2023-02-19T21:02:50.288Z,78.28
2023-02-19T21:05:17.446Z,78.37
2023-02-19T21:07:43.734Z,78.58
2023-02-19T21:10:10.203Z,78.22
2023-02-19T21:12:36.502Z,78.13
2023-02-19T21:15:03.386Z,78.55
2023-02-19T21:17:29.927Z,78.65
2023-02-19T21:19:56.247Z,78.58
2023-02-19T21:22:22.590Z,78.99
2023-02-19T21:24:51.838Z,79.07
2023-02-19T21:27:19.127Z,78.83
2023-02-19T21:29:46.593Z,78.93
2023-02-19T21:32:12.925Z,78.81
2023-02-19T21:34:39.292Z,79.50
2023-02-19T21:37:05.574Z,79.31
2023-02-19T21:39:31.973Z,79.59
2023-02-19T21:41:58.249Z,80.18
2023-02-19T21:44:25.753Z,79.46
2023-02-19T21:46:51.966Z,80.20
2023-02-19T21:49:18.402Z,79.90
2023-02-19T21:51:45.636Z,80.27
2023-02-19T21:54:17.303Z,80.46
2023-02-19T21:56:43.715Z,80.06
2023-02-19T21:59:10.398Z,79.62
2023-02-19T22:01:38.508Z,80.03
2023-02-19T22:04:06.457Z,80.09
2023-02-19T22:06:33.359Z,80.20
2023-02-19T22:09:00.338Z,79.64
2023-02-19T22:11:26.714Z,80.42
2023-02-19T22:13:53.079Z,80.33
2023-02-19T22:16:19.679Z,80.30
2023-02-19T22:18:47.677Z,80.38
2023-02-19T22:21:14.318Z,80.27
2023-02-19T22:23:43.859Z,80.71
2023-02-19T22:26:17.116Z,80.25
2023-02-19T22:28:43.422Z,80.44
2023-02-19T22:31:09.712Z,80.90
2023-02-19T22:33:36.008Z,80.63
2023-02-19T22:36:02.288Z,80.75
2023-02-19T22:38:28.581Z,81.16
2023-02-19T22:40:54.880Z,81.58
2023-02-19T22:43:21.150Z,81.57
2023-02-19T22:45:47.535Z,81.44
2023-02-19T22:48:19.234Z,81.89
2023-02-19T22:50:51.461Z,81.30
2023-02-19T22:53:17.892Z,81.38
2023-02-19T22:55:44.189Z,81.49
2023-02-19T22:58:10.464Z,82.24
2023-02-19T23:00:36.743Z,82.06
2023-02-19T23:03:03.174Z,81.98
2023-02-19T23:05:29.474Z,82.58
2023-02-19T23:07:55.796Z,82.80
2023-02-19T23:10:22.188Z,83.08
2023-02-19T23:12:48.481Z,82.36
2023-02-19T23:15:14.900Z,82.67
2023-02-19T23:17:41.252Z,82.83
2023-02-19T23:20:08.183Z,83.20
2023-02-19T23:22:34.491Z,83.20
2023-02-19T23:25:01.223Z,83.32
2023-02-19T23:27:27.529Z,83.73
2023-02-19T23:29:54.762Z,83.61
2023-02-19T23:32:21.282Z,83.30
2023-02-19T23:34:48.018Z,83.69
2023-02-19T23:37:15.040Z,83.42
2023-02-19T23:39:41.360Z,83.93
2023-02-19T23:42:07.651Z,84.32
2023-02-19T23:44:33.973Z,84.04
2023-02-19T23:47:00.270Z,84.17
2023-02-19T23:49:26.582Z,84.80
2023-02-19T23:51:52.907Z,84.27
2023-02-19T23:54:19.191Z,85.22
2023-02-19T23:56:45.477Z,84.40
2023-02-19T23:59:12.003Z,84.81
